Time;durP1;ratioP1;P1;durP2;ratioP2;P2;SDS_P1;SDS_P2;PMS_P1;PMS_P2;Temp;Humidity;BMP_temperature;BMP_pressure;BME280_temperature;BME280_humidity;BME280_pressure;Samples;Min_cycle;Max_cycle;Signal;HPM_P1;HPM_P2
2021/10/11 00:01:48;;;;;;;6.03;1.40;;;16.10;84.30;;;;;;5123047;27;20444;-69
2021/10/11 00:04:14;;;;;;;6.78;2.10;;;16.10;84.40;;;;;;5131184;27;20031;-68
2021/10/11 00:06:40;;;;;;;5.70;1.67;;;16.00;84.50;;;;;;5121727;27;20055;-68
2021/10/11 00:09:08;;;;;;;7.97;1.70;;;16.00;84.80;;;;;;5114255;28;20023;-69
2021/10/11 00:11:34;;;;;;;9.60;1.73;;;16.00;85.20;;;;;;5116175;28;20032;-68
2021/10/11 00:13:59;;;;;;;11.20;2.20;;;15.90;85.30;;;;;;5114281;27;20024;-69
2021/10/11 00:16:25;;;;;;;13.73;1.90;;;15.90;85.30;;;;;;5114647;27;20039;-69
2021/10/11 00:18:52;;;;;;;4.93;1.58;;;15.90;85.10;;;;;;5115393;28;20026;-68
2021/10/11 00:21:18;;;;;;;5.88;1.90;;;15.90;85.20;;;;;;5114389;27;20058;-69
2021/10/11 00:23:44;;;;;;;5.53;1.80;;;15.80;85.30;;;;;;5126244;27;20107;-68
2021/10/11 00:26:10;;;;;;;3.70;1.45;;;15.80;85.70;;;;;;5126251;27;20039;-68
2021/10/11 00:28:36;;;;;;;7.57;1.50;;;15.80;85.90;;;;;;5115520;27;20032;-68
2021/10/11 00:31:02;;;;;;;9.65;1.50;;;15.80;86.00;;;;;;5106280;27;20113;-68
2021/10/11 00:33:28;;;;;;;12.75;1.83;;;15.70;86.00;;;;;;5117913;27;20037;-68
2021/10/11 00:35:53;;;;;;;9.45;2.03;;;15.70;86.00;;;;;;5130827;27;20042;-68
2021/10/11 00:38:19;;;;;;;12.68;2.42;;;15.70;85.90;;;;;;5114844;27;20031;-68
2021/10/11 00:40:45;;;;;;;10.73;1.83;;;15.70;85.70;;;;;;5121666;27;20027;-68
2021/10/11 00:43:13;;;;;;;8.20;2.30;;;15.70;85.70;;;;;;5120302;27;20031;-68
2021/10/11 00:45:39;;;;;;;13.27;1.95;;;15.70;85.70;;;;;;5124987;27;20463;-68
2021/10/11 00:48:05;;;;;;;8.45;1.95;;;15.70;85.60;;;;;;5115146;27;20035;-68
2021/10/11 00:50:36;;;;;;;8.73;1.40;;;15.70;85.50;;;;;;5113934;28;20023;-68
2021/10/11 00:53:02;;;;;;;12.90;1.83;;;15.60;85.40;;;;;;5123301;27;20031;-68
2021/10/11 00:55:28;;;;;;;9.65;1.67;;;15.60;85.30;;;;;;5130484;27;20423;-68
2021/10/11 00:57:54;;;;;;;11.90;2.15;;;15.60;85.20;;;;;;5124360;27;20051;-68
2021/10/11 01:00:19;;;;;;;7.18;1.83;;;15.60;85.10;;;;;;5113152;27;20073;-68
2021/10/11 01:02:45;;;;;;;16.02;2.40;;;15.60;85.00;;;;;;5114545;28;20019;-68
2021/10/11 01:05:11;;;;;;;11.48;2.30;;;15.60;84.80;;;;;;5113266;28;20463;-69
2021/10/11 01:07:37;;;;;;;11.77;2.00;;;15.60;84.70;;;;;;5128307;27;20172;-69
2021/10/11 01:10:03;;;;;;;10.10;1.98;;;15.60;84.60;;;;;;5123044;27;20031;-68
2021/10/11 01:12:30;;;;;;;11.55;2.47;;;15.60;84.50;;;;;;5124094;27;20088;-68
2021/10/11 01:14:56;;;;;;;7.25;1.42;;;15.60;84.40;;;;;;5107270;27;20065;-68
2021/10/11 01:17:21;;;;;;;10.93;2.03;;;15.50;84.30;;;;;;5107485;28;20081;-68
2021/10/11 01:19:49;;;;;;;11.18;1.85;;;15.50;84.10;;;;;;5110599;28;20019;-69
2021/10/11 01:22:18;;;;;;;14.75;1.77;;;15.60;84.00;;;;;;5122477;27;20034;-68
2021/10/11 01:24:44;;;;;;;20.20;2.35;;;15.50;83.90;;;;;;5114224;27;20075;-68
2021/10/11 01:27:10;;;;;;;11.63;1.85;;;15.50;83.70;;;;;;5124563;27;20055;-68
2021/10/11 01:29:35;;;;;;;12.30;2.05;;;15.50;83.60;;;;;;5118443;27;20097;-68
2021/10/11 01:32:04;;;;;;;13.48;2.10;;;15.50;83.50;;;;;;5113730;27;20032;-68
2021/10/11 01:34:30;;;;;;;7.47;1.67;;;15.40;83.40;;;;;;5115456;27;20028;-68
2021/10/11 01:36:55;;;;;;;9.35;1.88;;;15.50;83.30;;;;;;5119599;27;20424;-69
2021/10/11 01:39:21;;;;;;;12.35;2.00;;;15.50;83.30;;;;;;5120527;27;20160;-69
2021/10/11 01:41:50;;;;;;;7.82;1.77;;;15.40;83.10;;;;;;5103167;27;20102;-68
2021/10/11 01:44:15;;;;;;;14.18;2.30;;;15.40;83.00;;;;;;5118604;27;20379;-68
2021/10/11 01:46:44;;;;;;;15.25;2.55;;;15.40;82.80;;;;;;5113974;27;20020;-68
2021/10/11 01:49:13;;;;;;;6.75;1.48;;;15.40;82.70;;;;;;5116896;27;20024;-68
2021/10/11 01:51:38;;;;;;;14.93;2.42;;;15.40;82.60;;;;;;5122360;27;20088;-68
2021/10/11 01:54:04;;;;;;;11.15;1.52;;;15.40;82.40;;;;;;5124997;27;20466;-68
2021/10/11 01:56:30;;;;;;;14.57;2.28;;;15.40;82.30;;;;;;5124268;27;20047;-68
2021/10/11 01:58:56;;;;;;;9.52;1.50;;;15.30;82.30;;;;;;5102725;27;20050;-69
2021/10/11 02:01:23;;;;;;;8.13;1.30;;;15.30;82.30;;;;;;5114938;27;20024;-68
2021/10/11 02:03:48;;;;;;;10.40;1.85;;;15.30;82.50;;;;;;5115003;27;20023;-68
2021/10/11 02:06:14;;;;;;;17.70;3.15;;;15.30;82.70;;;;;;5121423;27;20435;-68
2021/10/11 02:08:40;;;;;;;5.30;1.50;;;15.30;82.80;;;;;;5114350;27;20028;-68
2021/10/11 02:11:05;;;;;;;8.77;2.30;;;15.20;82.80;;;;;;5113072;28;20027;-69
2021/10/11 02:13:31;;;;;;;14.32;1.98;;;15.20;83.10;;;;;;5112732;27;20027;-68
2021/10/11 02:15:57;;;;;;;5.68;1.45;;;15.20;83.40;;;;;;5103310;27;20027;-68
2021/10/11 02:18:22;;;;;;;10.77;1.58;;;15.10;83.60;;;;;;5123848;27;20031;-68
2021/10/11 02:20:48;;;;;;;10.65;2.08;;;15.10;83.70;;;;;;5112068;27;20374;-68
2021/10/11 02:23:17;;;;;;;6.70;1.63;;;15.10;83.90;;;;;;5121230;27;20031;-68
2021/10/11 02:25:43;;;;;;;12.60;1.50;;;15.10;84.00;;;;;;5127542;27;20027;-69
2021/10/11 02:28:09;;;;;;;14.68;2.30;;;15.00;83.90;;;;;;5117782;27;20072;-68
2021/10/11 02:30:34;;;;;;;10.70;1.60;;;15.00;83.90;;;;;;5122862;27;20027;-68
2021/10/11 02:33:00;;;;;;;7.57;2.03;;;15.00;83.80;;;;;;5123473;27;20102;-68
2021/10/11 02:35:26;;;;;;;8.00;1.30;;;15.00;83.70;;;;;;5116735;27;20420;-68
2021/10/11 02:37:51;;;;;;;5.60;1.48;;;15.00;83.80;;;;;;5105606;27;20472;-68
2021/10/11 02:40:17;;;;;;;13.95;2.35;;;14.90;83.80;;;;;;5097365;28;20028;-68
2021/10/11 02:42:42;;;;;;;8.13;1.80;;;14.90;83.80;;;;;;5106254;27;20081;-68
2021/10/11 02:45:08;;;;;;;11.15;2.38;;;14.90;84.00;;;;;;5128301;27;20019;-68
2021/10/11 02:47:34;;;;;;;13.23;1.65;;;14.90;84.10;;;;;;5124320;27;20064;-68
2021/10/11 02:50:03;;;;;;;8.98;1.95;;;14.90;84.10;;;;;;5120274;27;20031;-68
2021/10/11 02:52:32;;;;;;;7.53;1.70;;;14.90;84.30;;;;;;5118999;27;20491;-68
2021/10/11 02:54:59;;;;;;;5.65;1.20;;;14.90;84.30;;;;;;5122738;27;20077;-68
2021/10/11 02:57:24;;;;;;;7.90;1.88;;;14.80;84.60;;;;;;5128276;28;20043;-68
2021/10/11 02:59:50;;;;;;;5.88;1.48;;;14.80;84.80;;;;;;5125128;28;20031;-68
2021/10/11 03:02:16;;;;;;;4.63;1.05;;;14.80;84.90;;;;;;5107831;28;20031;-68
2021/10/11 03:04:44;;;;;;;11.82;1.80;;;14.80;85.00;;;;;;5127302;28;20114;-68
2021/10/11 03:07:10;;;;;;;9.55;1.60;;;14.80;84.90;;;;;;5127366;28;20370;-68
2021/10/11 03:09:36;;;;;;;8.13;1.33;;;14.80;85.10;;;;;;5128745;28;20046;-68
2021/10/11 03:12:02;;;;;;;9.85;1.60;;;14.70;85.10;;;;;;5120005;28;20372;-68
2021/10/11 03:14:27;;;;;;;20.63;2.15;;;14.70;85.20;;;;;;5128797;28;20055;-68
2021/10/11 03:16:53;;;;;;;6.72;1.65;;;14.70;85.20;;;;;;5124052;28;20031;-68
2021/10/11 03:19:18;;;;;;;8.63;1.70;;;14.70;85.20;;;;;;5110276;27;20054;-68
2021/10/11 03:21:44;;;;;;;9.48;1.92;;;14.70;85.30;;;;;;5129062;27;20143;-68
2021/10/11 03:24:10;;;;;;;7.97;1.80;;;14.70;85.30;;;;;;5114880;27;20034;-68
2021/10/11 03:26:35;;;;;;;6.55;1.63;;;14.70;85.30;;;;;;5115001;28;20035;-68
2021/10/11 03:29:01;;;;;;;8.80;1.38;;;14.70;85.40;;;;;;5127492;27;20096;-69
2021/10/11 03:31:27;;;;;;;8.02;1.38;;;14.60;85.40;;;;;;5115912;28;20030;-68
2021/10/11 03:33:52;;;;;;;7.75;1.63;;;14.60;85.40;;;;;;5116464;27;20077;-68
2021/10/11 03:36:18;;;;;;;7.47;1.38;;;14.60;85.40;;;;;;5114958;28;20039;-68
2021/10/11 03:38:45;;;;;;;13.98;1.60;;;14.60;85.40;;;;;;5125037;27;20034;-68
2021/10/11 03:41:10;;;;;;;9.60;1.55;;;14.50;85.40;;;;;;5129086;27;20378;-69
2021/10/11 03:43:36;;;;;;;7.30;1.92;;;14.60;85.50;;;;;;5133825;27;20038;-68
2021/10/11 03:46:05;;;;;;;11.48;1.52;;;14.50;85.40;;;;;;5119067;27;20028;-69
2021/10/11 03:48:31;;;;;;;7.38;1.40;;;14.50;85.40;;;;;;5108381;27;20051;-69
2021/10/11 03:50:58;;;;;;;6.15;1.45;;;14.50;85.50;;;;;;5117579;27;20494;-69
2021/10/11 03:53:23;;;;;;;10.43;1.52;;;14.40;85.40;;;;;;5117901;27;20062;-68
2021/10/11 03:55:52;;;;;;;16.40;1.92;;;14.40;85.40;;;;;;5123083;27;20054;-68
2021/10/11 03:58:18;;;;;;;8.35;1.60;;;14.40;85.50;;;;;;5116261;27;20043;-69
2021/10/11 04:00:43;;;;;;;10.38;1.42;;;14.40;85.50;;;;;;5128390;27;20023;-69
2021/10/11 04:03:09;;;;;;;11.63;1.63;;;14.40;85.50;;;;;;5128138;27;20042;-69
2021/10/11 04:05:36;;;;;;;12.00;1.77;;;14.40;85.60;;;;;;5126040;27;20024;-69
2021/10/11 04:13:38;;;;;;;8.02;1.60;;;14.30;85.70;;;;;;5127362;27;20057;-68
2021/10/11 04:16:07;;;;;;;8.82;1.35;;;14.30;85.70;;;;;;5127546;27;20023;-68
2021/10/11 04:18:33;;;;;;;9.95;1.60;;;14.30;85.80;;;;;;5120071;27;20035;-68
2021/10/11 04:20:59;;;;;;;4.55;1.30;;;14.20;85.80;;;;;;5117969;27;20370;-69
2021/10/11 04:23:25;;;;;;;10.27;1.80;;;14.20;85.90;;;;;;5124388;27;20042;-68
2021/10/11 04:25:51;;;;;;;5.55;1.45;;;14.20;85.90;;;;;;5123409;27;20024;-68
2021/10/11 04:28:18;;;;;;;10.70;1.70;;;14.30;86.00;;;;;;5125176;27;20053;-69
2021/10/11 04:30:44;;;;;;;19.13;2.10;;;14.30;86.10;;;;;;5117402;27;20040;-69
2021/10/11 04:33:11;;;;;;;7.07;1.15;;;14.20;86.10;;;;;;5127934;27;20039;-68
2021/10/11 04:35:40;;;;;;;9.90;1.70;;;14.30;86.20;;;;;;5114859;27;20063;-68
2021/10/11 04:38:06;;;;;;;13.35;1.77;;;14.20;86.20;;;;;;5126495;27;20035;-68
2021/10/11 04:40:32;;;;;;;6.22;2.13;;;14.20;86.20;;;;;;5116915;27;20023;-68
2021/10/11 04:42:59;;;;;;;7.50;1.77;;;14.30;86.20;;;;;;5128000;27;20046;-69
2021/10/11 04:45:29;;;;;;;9.25;2.10;;;14.20;86.20;;;;;;5123576;27;20026;-68
2021/10/11 04:48:04;;;;;;;9.13;1.52;;;14.20;86.20;;;;;;5118106;27;20156;-68
2021/10/11 04:50:32;;;;;;;8.98;1.45;;;14.20;86.20;;;;;;5106249;27;20410;-68
2021/10/11 04:53:00;;;;;;;9.85;1.52;;;14.20;86.10;;;;;;5115336;27;20035;-69
2021/10/11 04:55:26;;;;;;;17.55;1.83;;;14.20;86.10;;;;;;5121049;27;20024;-68
2021/10/11 04:57:52;;;;;;;14.68;1.85;;;14.10;86.10;;;;;;5117325;27;20060;-70
2021/10/11 05:00:19;;;;;;;13.75;1.60;;;14.20;86.80;;;;;;5113274;27;20038;-69
2021/10/11 05:02:45;;;;;;;7.20;1.80;;;14.10;86.20;;;;;;5118215;27;20046;-68
2021/10/11 05:05:11;;;;;;;11.43;2.83;;;14.10;86.30;;;;;;5116579;27;20031;-69
2021/10/11 05:07:37;;;;;;;4.57;1.42;;;14.10;86.30;;;;;;5107222;27;20024;-69
2021/10/11 05:10:04;;;;;;;7.55;1.85;;;14.10;86.40;;;;;;5116830;27;20552;-73
2021/10/11 05:12:29;;;;;;;6.85;2.08;;;14.10;86.40;;;;;;5116032;27;20032;-72
2021/10/11 05:14:55;;;;;;;10.02;1.80;;;14.10;86.40;;;;;;5117370;27;20029;-69
2021/10/11 05:17:20;;;;;;;8.65;1.50;;;14.10;86.40;;;;;;5117184;27;20039;-70
2021/10/11 05:19:46;;;;;;;5.97;2.08;;;14.10;86.50;;;;;;5117701;27;20019;-71
2021/10/11 05:22:12;;;;;;;12.40;2.15;;;14.10;86.50;;;;;;5114512;27;20027;-70
2021/10/11 05:24:37;;;;;;;6.47;1.70;;;14.10;86.50;;;;;;5113510;27;20013;-70
2021/10/11 05:27:03;;;;;;;10.70;1.85;;;14.00;86.50;;;;;;5109486;27;20027;-69
2021/10/11 05:29:29;;;;;;;9.73;1.88;;;14.00;86.40;;;;;;5127367;27;20454;-70
2021/10/11 05:31:55;;;;;;;10.15;1.92;;;14.00;86.50;;;;;;5121841;27;20091;-70
2021/10/11 05:34:20;;;;;;;7.18;2.17;;;14.00;86.50;;;;;;5115840;27;20058;-70
2021/10/11 05:36:49;;;;;;;8.95;2.63;;;14.00;86.50;;;;;;5114866;27;20028;-70
2021/10/11 05:39:14;;;;;;;6.15;1.40;;;14.00;86.50;;;;;;5115920;27;20036;-72
2021/10/11 05:41:40;;;;;;;18.42;1.58;;;14.00;86.40;;;;;;5114792;27;20031;-70
2021/10/11 05:44:08;;;;;;;11.13;1.73;;;14.00;86.50;;;;;;5125837;27;20114;-71
2021/10/11 05:46:34;;;;;;;7.40;1.48;;;14.00;86.50;;;;;;5106375;27;20031;-71
2021/10/11 05:49:01;;;;;;;12.65;1.80;;;14.00;86.50;;;;;;5130896;27;20382;-71
2021/10/11 05:51:27;;;;;;;9.27;1.77;;;14.00;86.60;;;;;;5117252;27;20416;-71
2021/10/11 05:53:53;;;;;;;6.90;1.33;;;14.00;86.50;;;;;;5119219;27;20035;-71
2021/10/11 05:56:18;;;;;;;10.68;1.58;;;14.00;86.50;;;;;;5117049;27;20062;-71
2021/10/11 05:58:44;;;;;;;10.80;1.65;;;14.00;86.50;;;;;;5129695;27;20441;-71
2021/10/11 06:01:10;;;;;;;10.32;2.28;;;14.00;86.50;;;;;;5126805;27;20492;-71
2021/10/11 06:03:36;;;;;;;8.82;1.67;;;13.90;86.40;;;;;;5114683;27;20114;-71
2021/10/11 06:06:04;;;;;;;10.18;1.70;;;14.00;86.50;;;;;;5111202;28;20110;-71
2021/10/11 06:08:30;;;;;;;7.40;1.50;;;13.90;86.40;;;;;;5122145;27;20034;-71
2021/10/11 06:10:55;;;;;;;4.95;1.35;;;13.90;86.40;;;;;;5126634;27;20027;-71
2021/10/11 06:13:22;;;;;;;6.85;1.70;;;13.90;86.50;;;;;;5128694;27;20047;-71
2021/10/11 06:15:47;;;;;;;15.80;1.73;;;13.90;86.50;;;;;;5122873;27;20016;-77
2021/10/11 06:18:13;;;;;;;13.32;2.22;;;13.90;86.50;;;;;;5113749;27;20043;-71
2021/10/11 06:20:39;;;;;;;6.45;1.45;;;13.90;86.60;;;;;;5111990;27;20068;-71
2021/10/11 06:23:05;;;;;;;12.43;2.05;;;13.80;86.60;;;;;;5119927;27;20530;-71
2021/10/11 06:25:31;;;;;;;10.45;1.80;;;13.80;86.60;;;;;;5114457;27;20378;-71
2021/10/11 06:27:57;;;;;;;13.48;2.22;;;13.80;86.70;;;;;;5113211;27;20038;-71
2021/10/11 06:30:22;;;;;;;9.98;1.92;;;13.80;86.70;;;;;;5122434;27;20023;-71
2021/10/11 06:32:48;;;;;;;8.63;1.85;;;13.90;86.80;;;;;;5115931;27;20382;-71
2021/10/11 06:35:14;;;;;;;8.77;2.05;;;13.80;86.80;;;;;;5119360;27;20035;-71
2021/10/11 06:37:39;;;;;;;8.95;1.50;;;13.80;86.80;;;;;;5112408;27;20497;-71
2021/10/11 06:40:06;;;;;;;14.02;2.80;;;13.80;86.90;;;;;;5109371;28;20102;-71
2021/10/11 06:42:32;;;;;;;8.13;2.30;;;13.80;87.00;;;;;;5112522;27;20036;-71
2021/10/11 06:44:57;;;;;;;6.90;1.52;;;13.80;87.00;;;;;;5122497;27;20060;-71
2021/10/11 06:47:23;;;;;;;13.18;1.70;;;13.90;87.10;;;;;;5105859;28;20482;-71
2021/10/11 06:49:49;;;;;;;12.70;1.73;;;13.90;87.00;;;;;;5103303;27;20039;-71
2021/10/11 06:52:15;;;;;;;20.50;2.53;;;13.90;87.00;;;;;;5112182;27;20445;-71
2021/10/11 06:54:41;;;;;;;9.35;1.50;;;13.90;87.00;;;;;;5111153;28;20028;-71
2021/10/11 06:57:07;;;;;;;10.25;1.83;;;13.90;87.00;;;;;;5113410;28;20566;-70
2021/10/11 06:59:34;;;;;;;10.13;1.83;;;13.90;86.70;;;;;;5113609;28;20394;-71
2021/10/11 07:01:59;;;;;;;5.32;1.50;;;13.90;86.70;;;;;;5124337;28;20038;-71
2021/10/11 07:04:25;;;;;;;9.27;1.58;;;13.90;86.80;;;;;;5113602;28;20031;-71
2021/10/11 07:06:51;;;;;;;7.35;1.63;;;13.90;86.70;;;;;;5113020;28;20072;-71
2021/10/11 07:09:16;;;;;;;6.47;1.83;;;13.80;86.70;;;;;;5118269;28;20027;-70
2021/10/11 07:11:42;;;;;;;7.35;1.52;;;13.90;86.80;;;;;;5117384;28;20032;-71
2021/10/11 07:14:07;;;;;;;8.85;1.33;;;13.90;86.90;;;;;;5127976;28;20031;-71
2021/10/11 07:16:33;;;;;;;12.02;1.83;;;13.90;87.10;;;;;;5130524;28;20070;-71
2021/10/11 07:18:59;;;;;;;5.78;1.50;;;13.90;87.20;;;;;;5112159;28;20019;-71
2021/10/11 07:21:24;;;;;;;5.63;1.85;;;13.90;87.30;;;;;;5121413;28;20038;-71
2021/10/11 07:23:50;;;;;;;7.45;1.55;;;13.90;87.30;;;;;;5128067;28;20035;-71
2021/10/11 07:26:16;;;;;;;15.05;1.13;;;13.80;87.40;;;;;;5112390;28;20023;-71
2021/10/11 07:28:41;;;;;;;6.07;1.30;;;13.90;87.40;;;;;;5112288;28;20462;-70
2021/10/11 07:31:07;;;;;;;16.08;1.42;;;13.80;87.30;;;;;;5123959;28;20114;-71
2021/10/11 07:33:32;;;;;;;9.95;1.38;;;13.90;87.50;;;;;;5128830;28;20035;-70
2021/10/11 07:35:58;;;;;;;9.07;1.67;;;13.90;87.70;;;;;;5126490;28;20039;-71
2021/10/11 07:38:24;;;;;;;11.63;1.85;;;13.90;87.80;;;;;;5112434;28;20038;-70
2021/10/11 07:40:51;;;;;;;7.40;1.58;;;13.90;87.90;;;;;;5110887;28;20043;-71
2021/10/11 07:43:18;;;;;;;6.93;1.50;;;14.00;88.00;;;;;;5117620;28;20470;-71
2021/10/11 07:45:44;;;;;;;6.00;2.00;;;14.00;88.00;;;;;;5115087;28;20036;-70
2021/10/11 07:48:09;;;;;;;6.75;1.48;;;13.90;88.00;;;;;;5111619;28;20028;-71
2021/10/11 07:50:35;;;;;;;5.53;1.50;;;14.00;88.10;;;;;;5105233;28;20019;-70
2021/10/11 07:53:00;;;;;;;11.52;1.50;;;14.00;88.20;;;;;;5124822;28;20062;-71
2021/10/11 07:55:29;;;;;;;8.02;1.67;;;13.90;88.40;;;;;;5126689;28;20023;-70
2021/10/11 07:57:55;;;;;;;8.15;1.13;;;14.00;88.80;;;;;;5116307;28;20093;-71
2021/10/11 08:00:24;;;;;;;4.82;1.30;;;14.10;89.00;;;;;;5119783;28;20019;-70
2021/10/11 08:02:50;;;;;;;11.57;1.38;;;14.10;89.10;;;;;;5112289;28;20067;-71
2021/10/11 08:05:16;;;;;;;11.05;2.38;;;14.20;89.30;;;;;;5118211;27;20062;-70
2021/10/11 08:07:44;;;;;;;5.85;1.58;;;14.20;89.00;;;;;;5131449;27;20058;-70
2021/10/11 08:10:13;;;;;;;11.43;1.27;;;14.30;89.30;;;;;;5131077;27;20038;-71
2021/10/11 08:12:39;;;;;;;18.88;1.60;;;14.30;89.50;;;;;;5113645;27;20027;-71
2021/10/11 08:15:06;;;;;;;6.93;1.55;;;14.40;89.20;;;;;;5109156;27;20382;-71
2021/10/11 08:17:31;;;;;;;11.52;2.28;;;14.40;89.20;;;;;;5118705;27;20050;-72
2021/10/11 08:19:57;;;;;;;16.88;1.85;;;14.50;89.00;;;;;;5117591;27;20479;-74
2021/10/11 08:22:24;;;;;;;9.32;1.58;;;14.50;88.70;;;;;;5119007;27;20040;-74
2021/10/11 08:24:51;;;;;;;10.13;1.45;;;14.50;88.70;;;;;;5099007;27;20543;-76
2021/10/11 08:27:20;;;;;;;11.27;1.33;;;14.50;88.90;;;;;;5109741;27;20067;-77
2021/10/11 08:29:52;;;;;;;12.68;1.60;;;14.50;88.90;;;;;;5091833;27;20050;-76
2021/10/11 08:32:25;;;;;;;10.75;1.92;;;14.50;88.50;;;;;;5108532;27;20430;-72
2021/10/11 08:34:52;;;;;;;8.70;1.30;;;14.50;88.40;;;;;;5116788;27;20043;-74
2021/10/11 08:37:19;;;;;;;4.53;1.45;;;14.60;88.50;;;;;;5115745;27;20091;-72
2021/10/11 08:39:45;;;;;;;4.70;1.02;;;14.50;88.40;;;;;;5115392;27;20034;-72
2021/10/11 08:42:12;;;;;;;10.93;1.20;;;14.60;88.90;;;;;;5116279;27;20036;-73
2021/10/11 08:44:38;;;;;;;9.13;1.33;;;14.70;89.30;;;;;;5120220;27;20019;-73
2021/10/11 08:47:03;;;;;;;12.20;2.13;;;14.70;89.80;;;;;;5107735;27;20444;-72
2021/10/11 08:49:30;;;;;;;8.77;1.35;;;14.70;90.00;;;;;;5106769;27;20051;-72
2021/10/11 08:51:55;;;;;;;11.50;1.40;;;14.80;90.00;;;;;;5112813;27;20068;-72
2021/10/11 08:54:21;;;;;;;8.90;1.30;;;14.90;90.20;;;;;;5119462;27;20027;-72
2021/10/11 08:56:47;;;;;;;7.32;1.48;;;14.90;90.00;;;;;;5113582;27;20394;-73
2021/10/11 08:59:13;;;;;;;5.03;1.13;;;15.00;90.10;;;;;;5124523;27;20033;-75
2021/10/11 09:01:39;;;;;;;13.55;1.65;;;15.00;90.00;;;;;;5113241;28;20476;-75
2021/10/11 09:04:18;;;;;;;6.82;1.23;;;15.10;89.90;;;;;;5129400;27;20029;-75
2021/10/11 09:07:16;;;;;;;6.28;1.23;;;15.10;89.40;;;;;;5130241;27;20390;-75
2021/10/11 09:09:46;;;;;;;9.63;1.40;;;15.20;89.10;;;;;;5073232;27;20039;-76
2021/10/11 09:12:16;;;;;;;8.93;1.25;;;15.20;89.30;;;;;;5126160;27;20110;-74
2021/10/11 09:14:45;;;;;;;3.72;0.95;;;15.20;89.20;;;;;;5109069;27;20028;-74
2021/10/11 09:17:22;;;;;;;6.10;1.23;;;15.20;88.20;;;;;;5127606;27;20038;-74
2021/10/11 09:19:57;;;;;;;2.83;1.05;;;15.30;89.10;;;;;;5104016;28;20046;-73
2021/10/11 09:22:34;;;;;;;12.20;1.50;;;15.30;88.50;;;;;;5117928;27;20110;-74
2021/10/11 09:25:00;;;;;;;9.07;1.60;;;15.30;88.40;;;;;;5113424;27;20035;-74
2021/10/11 09:27:26;;;;;;;16.77;1.83;;;15.30;88.60;;;;;;5109028;27;20059;-72
2021/10/11 09:29:52;;;;;;;14.27;2.03;;;15.30;88.80;;;;;;5113852;28;20043;-71
2021/10/11 09:32:18;;;;;;;8.40;1.45;;;15.40;89.50;;;;;;5125181;27;20031;-72
2021/10/11 09:34:43;;;;;;;13.00;1.52;;;15.40;89.20;;;;;;5119068;27;20027;-72
2021/10/11 09:37:13;;;;;;;10.43;1.77;;;15.40;89.00;;;;;;5122998;27;20035;-72
2021/10/11 09:39:40;;;;;;;8.45;1.60;;;15.40;88.90;;;;;;5112871;27;20019;-72
2021/10/11 09:42:09;;;;;;;10.27;1.13;;;15.40;88.20;;;;;;5111123;27;20024;-72
2021/10/11 09:44:35;;;;;;;3.85;1.73;;;15.50;87.90;;;;;;5119921;27;20054;-72
2021/10/11 09:47:08;;;;;;;8.35;1.30;;;15.50;87.50;;;;;;5121252;27;20102;-72
2021/10/11 09:49:35;;;;;;;11.00;1.45;;;15.50;87.30;;;;;;5105684;27;20066;-72
2021/10/11 09:52:00;;;;;;;10.15;1.50;;;15.60;87.10;;;;;;5130383;27;20039;-72
2021/10/11 09:54:26;;;;;;;8.07;1.80;;;15.60;87.50;;;;;;5118738;27;20027;-72
2021/10/11 09:56:52;;;;;;;8.55;1.88;;;15.60;86.90;;;;;;5126813;27;20482;-72
2021/10/11 09:59:18;;;;;;;8.55;1.35;;;15.70;86.90;;;;;;5114141;27;20439;-72
2021/10/11 10:01:46;;;;;;;18.08;1.95;;;15.70;86.80;;;;;;5113668;27;20035;-72
2021/10/11 10:04:27;;;;;;;15.57;1.73;;;15.70;86.40;;;;;;5122756;27;20035;-73
2021/10/11 10:06:55;;;;;;;7.07;1.23;;;15.80;86.20;;;;;;5114708;27;20478;-72
2021/10/11 10:09:23;;;;;;;12.70;2.13;;;15.90;85.90;;;;;;5121730;27;20533;-72
2021/10/11 10:11:49;;;;;;;7.18;1.85;;;15.90;85.90;;;;;;5115682;27;20043;-76
2021/10/11 10:14:35;;;;;;;11.82;1.70;;;15.90;85.90;;;;;;5100945;28;20027;-74
2021/10/11 10:17:00;;;;;;;8.70;1.30;;;16.00;85.90;;;;;;5112946;27;20050;-72
2021/10/11 10:19:34;;;;;;;8.13;1.65;;;16.00;85.20;;;;;;5119490;27;20027;-72
2021/10/11 10:22:12;;;;;;;8.90;1.60;;;16.00;85.00;;;;;;5115413;27;20043;-72
2021/10/11 10:24:38;;;;;;;11.73;1.67;;;16.00;84.20;;;;;;5116401;27;20027;-71
2021/10/11 10:27:07;;;;;;;6.38;1.17;;;16.00;84.40;;;;;;5120045;27;20104;-71
2021/10/11 10:29:46;;;;;;;6.93;1.20;;;16.00;84.70;;;;;;5122287;27;20382;-72
2021/10/11 10:32:15;;;;;;;10.82;1.80;;;16.10;84.30;;;;;;5119311;27;20435;-72
2021/10/11 10:34:41;;;;;;;6.22;1.23;;;16.00;84.40;;;;;;5111588;27;20478;-71
2021/10/11 10:37:10;;;;;;;9.73;1.45;;;16.10;84.70;;;;;;5118423;27;20031;-71
2021/10/11 10:39:44;;;;;;;4.95;1.23;;;16.10;84.80;;;;;;5102949;27;20031;-71
2021/10/11 10:42:22;;;;;;;8.60;1.48;;;16.10;84.40;;;;;;5124429;27;20016;-71
2021/10/11 10:44:48;;;;;;;7.13;1.30;;;16.20;84.20;;;;;;5114496;27;20019;-71
2021/10/11 10:47:13;;;;;;;7.57;1.75;;;16.20;84.30;;;;;;5113147;27;20046;-72
2021/10/11 10:49:44;;;;;;;5.22;1.70;;;16.20;84.70;;;;;;5109594;27;20106;-72
2021/10/11 10:52:15;;;;;;;13.30;2.20;;;16.30;85.30;;;;;;5110152;28;20473;-72
2021/10/11 10:54:47;;;;;;;12.63;1.42;;;16.30;83.80;;;;;;5118947;27;20566;-72
2021/10/11 10:57:17;;;;;;;10.25;1.75;;;16.30;83.90;;;;;;5118415;27;20202;-72
2021/10/11 10:59:54;;;;;;;13.68;1.40;;;16.40;84.10;;;;;;5117041;28;20027;-72
2021/10/11 11:02:21;;;;;;;10.85;1.40;;;16.40;83.70;;;;;;5116528;28;20036;-72
2021/10/11 11:04:56;;;;;;;8.45;1.63;;;16.30;84.00;;;;;;5123077;28;20386;-72
2021/10/11 11:07:34;;;;;;;4.40;0.95;;;16.40;84.20;;;;;;5112572;28;20037;-72
2021/10/11 11:10:03;;;;;;;12.77;1.40;;;16.40;82.90;;;;;;5129485;28;20028;-72
2021/10/11 11:12:35;;;;;;;10.18;1.00;;;16.40;83.50;;;;;;5124979;28;20060;-72
2021/10/11 11:15:04;;;;;;;8.80;1.17;;;16.50;84.00;;;;;;5129316;28;20035;-72
2021/10/11 11:17:35;;;;;;;8.88;1.70;;;16.40;84.10;;;;;;5128184;28;20442;-72
2021/10/11 11:20:10;;;;;;;6.65;1.20;;;16.50;83.80;;;;;;5113610;28;20030;-72
2021/10/11 11:22:35;;;;;;;12.10;1.42;;;16.50;83.60;;;;;;5115408;28;20046;-73
2021/10/11 11:25:03;;;;;;;9.57;1.65;;;16.60;83.00;;;;;;5121535;28;20788;-72
2021/10/11 11:27:35;;;;;;;7.10;1.63;;;16.60;83.40;;;;;;5113871;28;20474;-72
2021/10/11 11:30:05;;;;;;;10.57;1.55;;;16.60;83.20;;;;;;5117324;28;20561;-72
2021/10/11 11:32:36;;;;;;;12.15;1.88;;;16.70;83.60;;;;;;5126324;28;20038;-72
2021/10/11 11:35:02;;;;;;;5.35;0.77;;;16.70;83.50;;;;;;5125315;28;20393;-72
2021/10/11 11:37:28;;;;;;;7.88;1.80;;;16.70;84.80;;;;;;5117314;28;20035;-72
2021/10/11 11:40:05;;;;;;;8.40;1.00;;;16.70;84.90;;;;;;5118262;27;20031;-72
2021/10/11 11:42:30;;;;;;;14.15;1.98;;;16.70;85.20;;;;;;5116360;27;20076;-72
2021/10/11 11:44:56;;;;;;;6.30;1.45;;;16.70;85.00;;;;;;5121276;27;20061;-72
2021/10/11 11:47:28;;;;;;;14.30;1.98;;;16.70;84.70;;;;;;5120417;27;20015;-72
2021/10/11 11:49:53;;;;;;;7.97;1.70;;;16.80;84.30;;;;;;5117406;27;20032;-72
2021/10/11 11:52:19;;;;;;;9.45;1.45;;;16.80;84.00;;;;;;5122037;27;20087;-72
2021/10/11 11:54:58;;;;;;;8.95;1.30;;;16.80;83.50;;;;;;5119291;27;20106;-72
2021/10/11 11:57:25;;;;;;;3.72;0.90;;;16.80;83.60;;;;;;5114624;27;20058;-72
2021/10/11 11:59:51;;;;;;;6.82;1.55;;;16.80;84.10;;;;;;5132505;27;20035;-72
2021/10/11 12:02:18;;;;;;;11.18;1.13;;;16.80;84.70;;;;;;5122141;27;20046;-72
2021/10/11 12:04:45;;;;;;;12.15;1.40;;;16.80;84.80;;;;;;5122503;27;20066;-72
2021/10/11 12:07:14;;;;;;;4.65;1.33;;;16.80;84.20;;;;;;5132145;27;20039;-72
2021/10/11 12:09:43;;;;;;;7.35;1.33;;;16.80;83.70;;;;;;5135071;27;20028;-72
2021/10/11 12:12:09;;;;;;;6.25;1.13;;;16.90;82.00;;;;;;5117450;27;20039;-74
2021/10/11 12:14:36;;;;;;;5.20;1.10;;;16.90;82.60;;;;;;5132897;27;20020;-72
2021/10/11 12:17:05;;;;;;;4.90;0.75;;;16.90;82.70;;;;;;5129858;27;20054;-72
2021/10/11 12:19:31;;;;;;;8.48;1.58;;;17.00;82.50;;;;;;5115301;27;20032;-72
2021/10/11 12:21:57;;;;;;;11.27;1.83;;;17.00;83.50;;;;;;5115152;28;20035;-72
2021/10/11 12:24:25;;;;;;;7.78;1.10;;;17.00;82.70;;;;;;5113932;27;20035;-72
2021/10/11 12:26:56;;;;;;;4.50;1.00;;;17.00;83.10;;;;;;5115230;28;20545;-72
2021/10/11 12:29:23;;;;;;;4.38;1.00;;;17.00;83.70;;;;;;5106615;28;20034;-72
2021/10/11 12:31:59;;;;;;;9.10;2.38;;;17.00;84.00;;;;;;5115496;27;20126;-72
2021/10/11 12:34:27;;;;;;;8.77;1.70;;;17.00;84.60;;;;;;5125289;27;20509;-72
2021/10/11 12:36:55;;;;;;;2.90;0.50;;;17.00;83.00;;;;;;5106031;27;20127;-72
2021/10/11 12:39:41;;;;;;;3.53;0.77;;;17.00;82.70;;;;;;5126558;27;20102;-72
2021/10/11 12:42:15;;;;;;;5.88;1.10;;;17.10;83.40;;;;;;5111021;27;20043;-72
2021/10/11 12:44:47;;;;;;;7.43;1.00;;;17.00;84.50;;;;;;5111243;27;20020;-72
2021/10/11 12:47:33;;;;;;;12.10;1.70;;;17.00;84.20;;;;;;5116071;27;20394;-72
2021/10/11 12:50:11;;;;;;;2.30;0.55;;;17.10;84.20;;;;;;5103407;28;20031;-72